Main page
METAR-TAF:

METAR-TAF

Airports :

Vanua Lava Airport

Vanua Lava, Vanuatu

latitude: 13-51-06S, longitude: 167-32-13E, elevation: 2 m

Current weather observation

The report was made 2 hours and 18 minutes ago, at 00:00 UTC
Wind 25 kt from the South/Southwest
Temperature 29°C
Humidity 84%
Pressure 1002 hPa
Visibility 10 km or more
Broken clouds at a height of 2000 ft
Overcast at a height of 11000 ft

METAR: NVSC 070000Z 20025KT 9999 BKN020 OVC110 29/26 Q1002

Time: 13:18 (02:18 UTC)

Forecast

The report was made 3 hours and 58 minutes ago, at 22:20 UTC
Forecast valid from 07 at 00 UTC to 07 at 24 UTC
Wind 10 kt from the West with gusts up to 20 kt
Visibility: 8000 m
Broken clouds at a height of 2000 ft
Overcast at a height of 10000 ft
Few clouds at a height of 1000 ft
Broken clouds at a height of 1500 ft
Overcast at a height of 6000 ft
light rain

TAF: NVSC 062220Z 0700/0724 27010G20KT 9000 BKN020 OVC100 INTER 0700/0706 8000 -RA FEW010 BKN015 OVC060

Weather observations and forecasts of more than 4000 airports (METAR and TAF reports).

The available stations are represented by yellow and red dots on the map.

Hover mouse over dot to see the name of the station.

Then click to see weather observations and forecasts.

To change the map : click on the green buttons with a black cross to zoom in, on the green button with a dash to zoom out, or on the green arrows for adjacent maps.


METAR-TAF: